Time;durP1;ratioP1;P1;durP2;ratioP2;P2;SDS_P1;SDS_P2;PMS_P1;PMS_P2;Temp;Humidity;BMP_temperature;BMP_pressure;BME280_temperature;BME280_humidity;BME280_pressure;Samples;Min_cycle;Max_cycle;Signal;HPM_P1;HPM_P2
2023/05/20 00:00:53;;;;;;;35.10;26.40;;;;;;;-128.00;-1.00;-1.00;18455;288;7504849;-32
2023/05/20 00:03:19;;;;;;;31.00;22.20;;;;;;;-128.00;-1.00;-1.00;18891;347;7505581;-33
2023/05/20 00:05:45;;;;;;;34.80;20.80;;;;;;;-128.00;-1.00;-1.00;18909;294;7504401;-36
2023/05/20 00:08:11;;;;;;;31.20;20.80;;;;;;;-128.00;-1.00;-1.00;18884;335;7504604;-32
2023/05/20 00:10:38;;;;;;;31.40;21.80;;;;;;;-128.00;-1.00;-1.00;18876;294;7504155;-36
2023/05/20 00:13:05;;;;;;;28.20;17.70;;;;;;;-128.00;-1.00;-1.00;18899;294;7504452;-31
2023/05/20 00:15:31;;;;;;;25.30;18.00;;;;;;;-128.00;-1.00;-1.00;18481;294;7506388;-35
2023/05/20 00:17:56;;;;;;;38.70;31.60;;;;;;;-128.00;-1.00;-1.00;18471;305;7505983;-31
2023/05/20 00:20:23;;;;;;;29.50;18.90;;;;;;;-128.00;-1.00;-1.00;18874;310;7505934;-31
2023/05/20 00:22:49;;;;;;;37.70;28.00;;;;;;;-128.00;-1.00;-1.00;18508;294;7505798;-31
2023/05/20 00:25:15;;;;;;;37.80;29.60;;;;;;;-128.00;-1.00;-1.00;18479;294;7504514;-32
2023/05/20 00:27:40;;;;;;;35.10;16.20;;;;;;;-128.00;-1.00;-1.00;18490;294;7506356;-32
2023/05/20 00:30:07;;;;;;;35.20;23.70;;;;;;;-128.00;-1.00;-1.00;18903;294;7505310;-31
2023/05/20 00:32:33;;;;;;;52.90;38.20;;;;;;;-128.00;-1.00;-1.00;18461;294;7506587;-33
2023/05/20 00:34:59;;;;;;;44.40;29.40;;;;;;;-128.00;-1.00;-1.00;18504;298;7505918;-31
2023/05/20 00:37:25;;;;;;;26.70;16.30;;;;;;;-128.00;-1.00;-1.00;18471;294;7504513;-32
2023/05/20 00:39:51;;;;;;;51.70;34.50;;;;;;;-128.00;-1.00;-1.00;18494;294;7504478;-31
2023/05/20 00:42:29;;;;;;;35.00;22.00;;;;;;;-128.00;-1.00;-1.00;18494;347;7504977;-31
2023/05/20 00:44:55;;;;;;;27.40;19.80;;;;;;;-128.00;-1.00;-1.00;18477;294;7505880;-35
2023/05/20 00:47:26;;;;;;;29.40;16.10;;;;;;;-128.00;-1.00;-1.00;18868;294;7504387;-35
2023/05/20 00:49:52;;;;;;;57.60;38.40;;;;;;;-128.00;-1.00;-1.00;18493;294;7506495;-34
2023/05/20 00:52:18;;;;;;;32.80;23.10;;;;;;;-128.00;-1.00;-1.00;18476;294;7505045;-36
2023/05/20 00:54:44;;;;;;;27.40;19.70;;;;;;;-128.00;-1.00;-1.00;18523;294;7504429;-36
2023/05/20 00:57:09;;;;;;;37.50;25.40;;;;;;;-128.00;-1.00;-1.00;18494;294;7504647;-32
2023/05/20 00:59:36;;;;;;;95.60;80.10;;;;;;;-128.00;-1.00;-1.00;18883;294;7504647;-33
2023/05/20 01:02:03;;;;;;;48.30;32.60;;;;;;;-128.00;-1.00;-1.00;18459;347;7504442;-31
2023/05/20 01:04:30;;;;;;;28.00;18.80;;;;;;;-128.00;-1.00;-1.00;18493;335;7504574;-35
2023/05/20 01:06:56;;;;;;;24.60;16.10;;;;;;;-128.00;-1.00;-1.00;18478;294;7504939;-30
2023/05/20 01:09:23;;;;;;;28.80;20.00;;;;;;;-128.00;-1.00;-1.00;18493;294;7504580;-31
2023/05/20 01:11:52;;;;;;;27.70;16.80;;;;;;;-128.00;-1.00;-1.00;18479;339;7505173;-34
2023/05/20 01:14:18;;;;;;;28.20;14.20;;;;;;;-128.00;-1.00;-1.00;18444;335;7506314;-36
2023/05/20 01:16:44;;;;;;;26.00;15.40;;;;;;;-128.00;-1.00;-1.00;18529;335;7505968;-36
2023/05/20 01:19:33;;;;;;;23.60;13.70;;;;;;;-128.00;-1.00;-1.00;18483;346;7505011;-35
2023/05/20 01:22:00;;;;;;;19.70;12.40;;;;;;;-128.00;-1.00;-1.00;18480;294;7504745;-36
2023/05/20 01:24:26;;;;;;;36.90;23.60;;;;;;;-128.00;-1.00;-1.00;18485;294;7504566;-35
2023/05/20 01:26:51;;;;;;;24.50;14.60;;;;;;;-128.00;-1.00;-1.00;18505;294;7505909;-31
2023/05/20 01:29:17;;;;;;;37.30;23.30;;;;;;;-128.00;-1.00;-1.00;18485;296;7506560;-31
2023/05/20 01:31:43;;;;;;;29.30;15.70;;;;;;;-128.00;-1.00;-1.00;18492;347;7505087;-32
2023/05/20 01:34:09;;;;;;;33.30;17.60;;;;;;;-128.00;-1.00;-1.00;18912;294;7504963;-36
2023/05/20 01:36:35;;;;;;;27.10;15.90;;;;;;;-128.00;-1.00;-1.00;18886;288;7506103;-31
2023/05/20 01:39:01;;;;;;;26.70;15.30;;;;;;;-128.00;-1.00;-1.00;18865;295;7504362;-31
2023/05/20 01:41:27;;;;;;;23.10;14.10;;;;;;;-128.00;-1.00;-1.00;18886;288;7504452;-31
2023/05/20 01:43:54;;;;;;;23.20;14.60;;;;;;;-128.00;-1.00;-1.00;18892;283;7505131;-35
2023/05/20 01:46:20;;;;;;;19.00;13.70;;;;;;;-128.00;-1.00;-1.00;18497;295;7505719;-32
2023/05/20 01:48:46;;;;;;;19.40;12.80;;;;;;;-128.00;-1.00;-1.00;18480;294;7506079;-31
2023/05/20 01:51:12;;;;;;;30.70;15.50;;;;;;;-128.00;-1.00;-1.00;18898;294;7504795;-36
2023/05/20 01:53:38;;;;;;;22.70;14.40;;;;;;;-128.00;-1.00;-1.00;18893;295;7504758;-37
2023/05/20 01:56:05;;;;;;;30.80;17.30;;;;;;;-128.00;-1.00;-1.00;18866;295;7505190;-35
2023/05/20 01:58:31;;;;;;;30.10;17.00;;;;;;;-128.00;-1.00;-1.00;18881;294;7504622;-36
2023/05/20 02:00:57;;;;;;;43.80;16.90;;;;;;;-128.00;-1.00;-1.00;18908;302;7505224;-32
2023/05/20 02:03:23;;;;;;;32.00;18.30;;;;;;;-128.00;-1.00;-1.00;18873;294;7505152;-32
2023/05/20 02:05:49;;;;;;;30.60;18.40;;;;;;;-128.00;-1.00;-1.00;18865;294;7505445;-32
2023/05/20 02:08:15;;;;;;;30.40;15.40;;;;;;;-128.00;-1.00;-1.00;18885;306;7504866;-32
2023/05/20 02:10:42;;;;;;;29.00;17.50;;;;;;;-128.00;-1.00;-1.00;18914;347;7504224;-36
2023/05/20 02:13:08;;;;;;;27.60;16.00;;;;;;;-128.00;-1.00;-1.00;18890;294;7504317;-36
2023/05/20 02:15:34;;;;;;;32.90;18.90;;;;;;;-128.00;-1.00;-1.00;18887;296;7504285;-33
2023/05/20 02:18:01;;;;;;;34.10;18.50;;;;;;;-128.00;-1.00;-1.00;18857;330;7504351;-37
2023/05/20 02:20:27;;;;;;;31.00;17.40;;;;;;;-128.00;-1.00;-1.00;18871;294;7504662;-35
2023/05/20 02:22:53;;;;;;;34.90;18.50;;;;;;;-128.00;-1.00;-1.00;18870;294;7504535;-33
2023/05/20 02:25:20;;;;;;;34.50;20.60;;;;;;;-128.00;-1.00;-1.00;18863;347;7504636;-34
2023/05/20 02:27:46;;;;;;;37.60;21.90;;;;;;;-128.00;-1.00;-1.00;18912;294;7505325;-36
2023/05/20 02:30:13;;;;;;;35.00;20.90;;;;;;;-128.00;-1.00;-1.00;18875;296;7504609;-31
2023/05/20 02:32:39;;;;;;;34.50;18.40;;;;;;;-128.00;-1.00;-1.00;18490;294;7504490;-34
2023/05/20 02:35:06;;;;;;;28.50;17.60;;;;;;;-128.00;-1.00;-1.00;18896;294;7504727;-35
2023/05/20 02:37:31;;;;;;;33.50;17.70;;;;;;;-128.00;-1.00;-1.00;18483;302;7505975;-34
2023/05/20 02:39:58;;;;;;;54.50;35.10;;;;;;;-128.00;-1.00;-1.00;18880;294;7504292;-35
2023/05/20 02:42:24;;;;;;;30.70;18.10;;;;;;;-128.00;-1.00;-1.00;18862;296;7505679;-34
2023/05/20 02:44:52;;;;;;;39.70;18.80;;;;;;;-128.00;-1.00;-1.00;18874;294;7504830;-31
2023/05/20 02:47:17;;;;;;;31.40;17.30;;;;;;;-128.00;-1.00;-1.00;18511;295;7504219;-35
2023/05/20 02:49:43;;;;;;;39.40;22.20;;;;;;;-128.00;-1.00;-1.00;18866;296;7504882;-32
2023/05/20 02:52:10;;;;;;;32.90;19.00;;;;;;;-128.00;-1.00;-1.00;18889;307;7504576;-34
2023/05/20 02:54:36;;;;;;;28.60;18.10;;;;;;;-128.00;-1.00;-1.00;18895;294;7505078;-32
2023/05/20 02:57:02;;;;;;;28.10;16.40;;;;;;;-128.00;-1.00;-1.00;18879;302;7504852;-32
2023/05/20 02:59:29;;;;;;;34.90;20.60;;;;;;;-128.00;-1.00;-1.00;18894;294;7505613;-31
2023/05/20 03:01:55;;;;;;;22.20;15.50;;;;;;;-128.00;-1.00;-1.00;18917;288;7504502;-32
2023/05/20 03:04:24;;;;;;;22.60;14.30;;;;;;;-128.00;-1.00;-1.00;18515;295;7504865;-35
2023/05/20 03:06:50;;;;;;;30.60;16.80;;;;;;;-128.00;-1.00;-1.00;18493;294;7505973;-32
2023/05/20 03:09:18;;;;;;;23.90;15.60;;;;;;;-128.00;-1.00;-1.00;18466;294;7505043;-32
2023/05/20 03:11:45;;;;;;;24.60;15.30;;;;;;;-128.00;-1.00;-1.00;18462;306;7504341;-33
2023/05/20 03:14:10;;;;;;;25.50;15.60;;;;;;;-128.00;-1.00;-1.00;18502;294;7504734;-33
2023/05/20 03:16:36;;;;;;;28.10;16.30;;;;;;;-128.00;-1.00;-1.00;18478;294;7504614;-31
2023/05/20 03:19:02;;;;;;;24.40;15.90;;;;;;;-128.00;-1.00;-1.00;18472;294;7505783;-35
2023/05/20 03:21:28;;;;;;;28.50;18.00;;;;;;;-128.00;-1.00;-1.00;18878;294;7505348;-36
2023/05/20 03:23:55;;;;;;;27.30;14.90;;;;;;;-128.00;-1.00;-1.00;18885;294;7505248;-32
2023/05/20 03:26:22;;;;;;;25.20;14.50;;;;;;;-128.00;-1.00;-1.00;18897;294;7505408;-36
2023/05/20 03:28:48;;;;;;;17.80;13.40;;;;;;;-128.00;-1.00;-1.00;18453;294;7505489;-32
2023/05/20 03:31:13;;;;;;;25.80;15.60;;;;;;;-128.00;-1.00;-1.00;18454;302;7504681;-36
2023/05/20 03:33:39;;;;;;;27.60;15.20;;;;;;;-128.00;-1.00;-1.00;18884;294;7504343;-31
2023/05/20 03:36:05;;;;;;;27.60;16.70;;;;;;;-128.00;-1.00;-1.00;18879;294;7504592;-32
2023/05/20 03:38:32;;;;;;;26.40;15.80;;;;;;;-128.00;-1.00;-1.00;18880;294;7504462;-34
2023/05/20 03:40:58;;;;;;;25.00;16.70;;;;;;;-128.00;-1.00;-1.00;18870;294;7504492;-35
2023/05/20 03:43:25;;;;;;;27.70;16.80;;;;;;;-128.00;-1.00;-1.00;18872;294;7504797;-30
2023/05/20 03:45:51;;;;;;;34.70;16.20;;;;;;;-128.00;-1.00;-1.00;18482;296;7505931;-36
2023/05/20 03:48:17;;;;;;;27.30;17.10;;;;;;;-128.00;-1.00;-1.00;18905;294;7504668;-35
2023/05/20 03:50:43;;;;;;;30.20;15.50;;;;;;;-128.00;-1.00;-1.00;18883;339;7504516;-32
2023/05/20 03:53:10;;;;;;;26.70;16.30;;;;;;;-128.00;-1.00;-1.00;18866;294;7504582;-31
2023/05/20 03:55:37;;;;;;;23.10;15.80;;;;;;;-128.00;-1.00;-1.00;18472;303;7504615;-35
2023/05/20 03:58:02;;;;;;;26.20;16.60;;;;;;;-128.00;-1.00;-1.00;18502;346;7504507;-35
2023/05/20 04:00:30;;;;;;;28.40;17.60;;;;;;;-128.00;-1.00;-1.00;18892;294;7504342;-32
2023/05/20 04:02:55;;;;;;;20.30;12.70;;;;;;;-128.00;-1.00;-1.00;18461;294;7505543;-35
2023/05/20 04:05:23;;;;;;;24.70;15.20;;;;;;;-128.00;-1.00;-1.00;18452;347;7505975;-31
2023/05/20 04:07:49;;;;;;;21.20;14.20;;;;;;;-128.00;-1.00;-1.00;18476;348;7504751;-33
2023/05/20 04:10:14;;;;;;;18.80;13.60;;;;;;;-128.00;-1.00;-1.00;18501;294;7504314;-36
2023/05/20 04:12:41;;;;;;;18.60;14.20;;;;;;;-128.00;-1.00;-1.00;18491;295;7506384;-35
2023/05/20 04:15:07;;;;;;;24.10;13.50;;;;;;;-128.00;-1.00;-1.00;18489;294;7506093;-35
2023/05/20 04:17:36;;;;;;;22.60;14.30;;;;;;;-128.00;-1.00;-1.00;18466;294;7504297;-34
2023/05/20 04:20:04;;;;;;;18.10;11.30;;;;;;;-128.00;-1.00;-1.00;18522;294;7504309;-34
2023/05/20 04:22:29;;;;;;;21.70;13.20;;;;;;;-128.00;-1.00;-1.00;18485;287;7505278;-33
2023/05/20 04:24:55;;;;;;;17.60;12.10;;;;;;;-128.00;-1.00;-1.00;18480;288;7506274;-33
2023/05/20 04:27:22;;;;;;;18.80;11.70;;;;;;;-128.00;-1.00;-1.00;18464;297;7504922;-31
2023/05/20 04:29:48;;;;;;;17.30;11.30;;;;;;;-128.00;-1.00;-1.00;18463;346;7504629;-35
2023/05/20 04:32:17;;;;;;;19.30;13.50;;;;;;;-128.00;-1.00;-1.00;18887;294;7504346;-31
2023/05/20 04:34:44;;;;;;;19.00;11.40;;;;;;;-128.00;-1.00;-1.00;18476;335;7505835;-31
2023/05/20 04:37:11;;;;;;;17.80;12.10;;;;;;;-128.00;-1.00;-1.00;18478;334;7506389;-36
2023/05/20 05:18:09;;;;;;;17.30;12.50;;;;;;;-100.29;19.20;20064.34;19548;305;8046113;-35
2023/05/20 05:20:35;;;;;;;19.20;14.20;;;;;;;-128.00;-1.00;-1.00;18596;297;7505075;-33
2023/05/20 05:23:02;;;;;;;18.70;11.70;;;;;;;-128.00;-1.00;-1.00;18874;296;7504877;-37
2023/05/20 05:25:28;;;;;;;19.00;13.50;;;;;;;-128.00;-1.00;-1.00;18843;295;7504685;-35
2023/05/20 05:27:54;;;;;;;16.00;10.30;;;;;;;-128.00;-1.00;-1.00;18867;289;7505051;-32
2023/05/20 05:30:21;;;;;;;18.20;11.00;;;;;;;-128.00;-1.00;-1.00;18880;295;7504452;-32
2023/05/20 05:32:47;;;;;;;12.70;9.00;;;;;;;-128.00;-1.00;-1.00;18878;288;7505272;-31
2023/05/20 05:35:13;;;;;;;19.00;9.40;;;;;;;-128.00;-1.00;-1.00;18888;295;7504333;-33
2023/05/20 05:37:39;;;;;;;11.90;8.10;;;;;;;-128.00;-1.00;-1.00;18870;296;7504125;-36
2023/05/20 05:40:07;;;;;;;13.10;8.80;;;;;;;-128.00;-1.00;-1.00;18898;307;7504286;-32
2023/05/20 05:42:33;;;;;;;14.50;10.10;;;;;;;-128.00;-1.00;-1.00;18491;297;7504359;-36
2023/05/20 05:44:59;;;;;;;11.70;9.10;;;;;;;-128.00;-1.00;-1.00;18895;295;7505108;-32
2023/05/20 05:47:31;;;;;;;13.90;7.60;;;;;;;-128.00;-1.00;-1.00;18881;296;7504950;-31
2023/05/20 05:49:57;;;;;;;11.30;7.50;;;;;;;-128.00;-1.00;-1.00;18484;296;7506133;-31
2023/05/20 05:52:23;;;;;;;9.00;6.60;;;;;;;-128.00;-1.00;-1.00;18478;348;7505039;-37
2023/05/20 05:54:49;;;;;;;8.60;6.90;;;;;;;-128.00;-1.00;-1.00;18871;288;7504878;-35
2023/05/20 05:57:15;;;;;;;19.40;7.20;;;;;;;-128.00;-1.00;-1.00;18885;295;7505239;-33
2023/05/20 05:59:42;;;;;;;11.40;7.00;;;;;;;-128.00;-1.00;-1.00;18870;341;7505240;-32
2023/05/20 06:02:09;;;;;;;11.70;8.00;;;;;;;-128.00;-1.00;-1.00;18483;295;7505003;-36
2023/05/20 06:04:35;;;;;;;9.60;7.00;;;;;;;-128.00;-1.00;-1.00;18492;288;7506241;-36
2023/05/20 06:07:01;;;;;;;10.70;8.10;;;;;;;-128.00;-1.00;-1.00;18469;295;7505179;-37
2023/05/20 06:09:27;;;;;;;8.50;7.70;;;;;;;-128.00;-1.00;-1.00;18457;296;7506997;-33
2023/05/20 06:11:53;;;;;;;16.00;8.30;;;;;;;-128.00;-1.00;-1.00;18514;347;7505588;-36
2023/05/20 06:14:19;;;;;;;19.90;9.60;;;;;;;-128.00;-1.00;-1.00;18895;297;7504097;-35
2023/05/20 06:16:45;;;;;;;11.30;8.50;;;;;;;-128.00;-1.00;-1.00;18880;288;7504200;-32
2023/05/20 06:19:12;;;;;;;14.20;9.80;;;;;;;-128.00;-1.00;-1.00;18863;296;7504916;-33
2023/05/20 06:21:38;;;;;;;9.10;7.70;;;;;;;-128.00;-1.00;-1.00;18480;288;7505928;-31
2023/05/20 06:24:04;;;;;;;11.00;8.50;;;;;;;-128.00;-1.00;-1.00;18467;296;7506007;-32
2023/05/20 06:26:30;;;;;;;9.10;6.80;;;;;;;-128.00;-1.00;-1.00;18479;289;7506344;-33
2023/05/20 06:28:56;;;;;;;10.30;8.70;;;;;;;-128.00;-1.00;-1.00;18466;288;7506068;-31
2023/05/20 06:31:22;;;;;;;10.10;8.40;;;;;;;-128.00;-1.00;-1.00;18475;304;7506758;-31
2023/05/20 06:33:48;;;;;;;10.60;7.60;;;;;;;-128.00;-1.00;-1.00;18470;288;7504261;-35
2023/05/20 06:36:13;;;;;;;9.30;7.90;;;;;;;-128.00;-1.00;-1.00;18475;288;7504461;-37
2023/05/20 06:38:39;;;;;;;10.30;8.10;;;;;;;-128.00;-1.00;-1.00;18468;296;7504542;-35
2023/05/20 06:41:05;;;;;;;9.50;7.30;;;;;;;-128.00;-1.00;-1.00;18439;347;7507095;-35
2023/05/20 06:43:31;;;;;;;9.90;6.90;;;;;;;-128.00;-1.00;-1.00;18472;345;7506285;-35
2023/05/20 06:45:57;;;;;;;12.90;8.20;;;;;;;-128.00;-1.00;-1.00;18438;297;7505215;-31
2023/05/20 06:48:23;;;;;;;10.30;8.20;;;;;;;-128.00;-1.00;-1.00;18869;296;7504307;-31
2023/05/20 06:50:49;;;;;;;12.30;8.40;;;;;;;-128.00;-1.00;-1.00;18871;337;7504229;-35
2023/05/20 06:53:16;;;;;;;15.80;9.50;;;;;;;-128.00;-1.00;-1.00;18877;288;7504439;-35
2023/05/20 06:55:42;;;;;;;12.00;7.80;;;;;;;-128.00;-1.00;-1.00;18896;296;7504214;-35
2023/05/20 06:58:08;;;;;;;12.70;8.80;;;;;;;-128.00;-1.00;-1.00;18866;296;7504305;-35
2023/05/20 07:00:34;;;;;;;10.80;7.90;;;;;;;-128.00;-1.00;-1.00;18485;288;7505034;-35
2023/05/20 07:03:00;;;;;;;13.00;8.30;;;;;;;-128.00;-1.00;-1.00;18475;296;7505067;-33
2023/05/20 07:05:27;;;;;;;9.50;7.90;;;;;;;-128.00;-1.00;-1.00;18887;320;7504676;-31
2023/05/20 07:07:53;;;;;;;8.40;6.80;;;;;;;-128.00;-1.00;-1.00;18472;297;7505789;-32
2023/05/20 07:10:19;;;;;;;12.40;7.50;;;;;;;-128.00;-1.00;-1.00;18462;304;7504309;-36
2023/05/20 07:12:45;;;;;;;10.60;7.30;;;;;;;-128.00;-1.00;-1.00;18473;295;7506053;-34
2023/05/20 07:15:11;;;;;;;11.20;8.20;;;;;;;-128.00;-1.00;-1.00;18880;288;7504558;-31
2023/05/20 07:17:37;;;;;;;21.20;8.70;;;;;;;-128.00;-1.00;-1.00;18877;288;7504677;-31
2023/05/20 07:20:04;;;;;;;8.60;7.30;;;;;;;-128.00;-1.00;-1.00;18884;288;7504319;-34
2023/05/20 07:22:31;;;;;;;9.40;7.10;;;;;;;-128.00;-1.00;-1.00;18473;296;7505206;-33
2023/05/20 07:24:58;;;;;;;21.60;9.70;;;;;;;-128.00;-1.00;-1.00;18448;296;7505408;-32
2023/05/20 07:27:23;;;;;;;8.90;7.40;;;;;;;-128.00;-1.00;-1.00;18414;287;7504866;-37
2023/05/20 07:29:49;;;;;;;15.00;7.70;;;;;;;-128.00;-1.00;-1.00;18450;296;7504409;-32
2023/05/20 07:32:15;;;;;;;16.90;7.20;;;;;;;-128.00;-1.00;-1.00;18466;347;7504915;-30
2023/05/20 07:34:41;;;;;;;13.80;7.80;;;;;;;-128.00;-1.00;-1.00;18480;288;7505454;-35
2023/05/20 07:37:08;;;;;;;10.30;7.30;;;;;;;-128.00;-1.00;-1.00;18883;297;7504348;-32
2023/05/20 07:39:34;;;;;;;9.10;7.40;;;;;;;-128.00;-1.00;-1.00;18467;296;7504307;-35
2023/05/20 07:42:00;;;;;;;9.50;7.40;;;;;;;-128.00;-1.00;-1.00;18458;296;7504876;-32
2023/05/20 07:44:51;;;;;;;14.50;9.20;;;;;;;-128.00;-1.00;-1.00;18857;296;7505034;-36
2023/05/20 08:07:05;;;;;;;10.80;8.30;;;;;;;-99.50;18.50;20062.13;19547;320;8045644;-35
2023/05/20 08:09:33;;;;;;;9.80;7.10;;;;;;;-128.00;-1.00;-1.00;18614;298;7504980;-36
2023/05/20 08:11:58;;;;;;;8.30;7.50;;;;;;;-128.00;-1.00;-1.00;18484;297;7505172;-33
2023/05/20 08:14:24;;;;;;;14.00;8.90;;;;;;;-128.00;-1.00;-1.00;18474;345;7504825;-36
2023/05/20 08:16:50;;;;;;;14.80;9.90;;;;;;;-128.00;-1.00;-1.00;18863;296;7504678;-33
2023/05/20 08:19:16;;;;;;;11.20;9.10;;;;;;;-128.00;-1.00;-1.00;18887;296;7505480;-36
2023/05/20 08:21:43;;;;;;;11.30;9.10;;;;;;;-128.00;-1.00;-1.00;18883;319;7506384;-32
2023/05/20 08:24:10;;;;;;;10.00;8.10;;;;;;;-128.00;-1.00;-1.00;18470;296;7504443;-33
2023/05/20 08:26:36;;;;;;;13.00;9.80;;;;;;;-128.00;-1.00;-1.00;18878;296;7504775;-35
2023/05/20 08:29:02;;;;;;;13.10;9.20;;;;;;;-128.00;-1.00;-1.00;18882;296;7504755;-35
2023/05/20 08:31:28;;;;;;;12.20;9.70;;;;;;;-128.00;-1.00;-1.00;18888;323;7505334;-31
2023/05/20 08:33:54;;;;;;;16.10;10.60;;;;;;;-128.00;-1.00;-1.00;18892;304;7504912;-35
2023/05/20 08:36:21;;;;;;;14.40;10.10;;;;;;;-128.00;-1.00;-1.00;18845;296;7504568;-32
2023/05/20 08:38:48;;;;;;;20.20;11.00;;;;;;;-128.00;-1.00;-1.00;18888;296;7504303;-35
2023/05/20 08:41:13;;;;;;;13.80;8.80;;;;;;;-128.00;-1.00;-1.00;18445;297;7506627;-32
2023/05/20 08:43:39;;;;;;;15.10;8.50;;;;;;;-128.00;-1.00;-1.00;18477;296;7503917;-34
2023/05/20 08:46:06;;;;;;;13.20;10.70;;;;;;;-128.00;-1.00;-1.00;18880;348;7504350;-32
2023/05/20 08:48:31;;;;;;;13.00;9.10;;;;;;;-128.00;-1.00;-1.00;18444;297;7504515;-32
2023/05/20 08:50:57;;;;;;;14.50;9.60;;;;;;;-128.00;-1.00;-1.00;18504;296;7506386;-35
2023/05/20 08:53:23;;;;;;;14.00;10.00;;;;;;;-128.00;-1.00;-1.00;18466;348;7505050;-31
2023/05/20 08:55:54;;;;;;;18.90;11.10;;;;;;;-128.00;-1.00;-1.00;18883;288;7504906;-32
2023/05/20 08:58:20;;;;;;;19.80;11.50;;;;;;;-128.00;-1.00;-1.00;18457;288;7504424;-32
2023/05/20 09:00:47;;;;;;;19.40;9.50;;;;;;;-128.00;-1.00;-1.00;18472;308;7506216;-31
2023/05/20 09:03:13;;;;;;;19.60;12.90;;;;;;;-128.00;-1.00;-1.00;18469;288;7504759;-31
2023/05/20 09:05:38;;;;;;;18.90;11.30;;;;;;;-128.00;-1.00;-1.00;18433;297;7506056;-31
2023/05/20 09:08:06;;;;;;;24.30;15.20;;;;;;;-128.00;-1.00;-1.00;18858;296;7505394;-31
2023/05/20 09:10:32;;;;;;;23.30;13.50;;;;;;;-128.00;-1.00;-1.00;18452;336;7506050;-31
2023/05/20 09:13:51;;;;;;;33.70;21.90;;;;;;;-128.00;-1.00;-1.00;18463;296;7504347;-35
2023/05/20 09:16:17;;;;;;;17.90;13.60;;;;;;;-128.00;-1.00;-1.00;18485;289;7506248;-35
2023/05/20 09:18:43;;;;;;;29.30;15.80;;;;;;;-128.00;-1.00;-1.00;18878;297;7505165;-32
2023/05/20 09:21:10;;;;;;;26.40;15.20;;;;;;;-128.00;-1.00;-1.00;18844;348;7504961;-35
2023/05/20 09:23:37;;;;;;;29.30;15.60;;;;;;;-128.00;-1.00;-1.00;18464;297;7504735;-32
2023/05/20 09:26:03;;;;;;;32.40;15.10;;;;;;;-128.00;-1.00;-1.00;18467;296;7504900;-32
2023/05/20 09:28:28;;;;;;;20.50;13.20;;;;;;;-128.00;-1.00;-1.00;18452;297;7504851;-32
2023/05/20 09:30:58;;;;;;;34.90;17.90;;;;;;;-128.00;-1.00;-1.00;18883;285;7504735;-34
2023/05/20 09:33:29;;;;;;;20.30;16.10;;;;;;;-128.00;-1.00;-1.00;18460;343;7504363;-32
2023/05/20 09:36:07;;;;;;;20.50;14.70;;;;;;;-128.00;-1.00;-1.00;18442;299;7504561;-36
2023/05/20 09:38:36;;;;;;;23.50;14.30;;;;;;;-128.00;-1.00;-1.00;18456;319;7506075;-32
2023/05/20 09:41:06;;;;;;;21.60;14.70;;;;;;;-128.00;-1.00;-1.00;18493;285;7506128;-32
2023/05/20 09:43:33;;;;;;;21.70;14.60;;;;;;;-128.00;-1.00;-1.00;18450;285;7505244;-36
2023/05/20 09:45:59;;;;;;;24.80;13.30;;;;;;;-128.00;-1.00;-1.00;18464;289;7505632;-35
2023/05/20 09:48:26;;;;;;;46.90;17.00;;;;;;;-128.00;-1.00;-1.00;18455;298;7504360;-32
2023/05/20 09:50:51;;;;;;;22.40;14.70;;;;;;;-128.00;-1.00;-1.00;18495;297;7505150;-36
2023/05/20 09:53:17;;;;;;;23.30;14.10;;;;;;;-128.00;-1.00;-1.00;18484;298;7504477;-36
2023/05/20 09:55:43;;;;;;;28.80;14.80;;;;;;;-128.00;-1.00;-1.00;18892;296;7504138;-36
2023/05/20 09:58:09;;;;;;;17.30;13.50;;;;;;;-128.00;-1.00;-1.00;18861;296;7505197;-32
2023/05/20 10:00:36;;;;;;;29.80;14.90;;;;;;;-128.00;-1.00;-1.00;18867;298;7504764;-32
2023/05/20 10:03:02;;;;;;;19.50;12.90;;;;;;;-128.00;-1.00;-1.00;18484;296;7504740;-35
2023/05/20 10:05:34;;;;;;;22.80;15.50;;;;;;;-128.00;-1.00;-1.00;18494;296;7506043;-37
2023/05/20 10:08:32;;;;;;;25.60;14.90;;;;;;;-128.00;-1.00;-1.00;18480;285;7504218;-36
2023/05/20 10:11:26;;;;;;;17.20;12.80;;;;;;;-128.00;-1.00;-1.00;18451;285;7504781;-32
2023/05/20 10:14:08;;;;;;;18.60;12.50;;;;;;;-128.00;-1.00;-1.00;18484;296;7504997;-36
2023/05/20 10:16:53;;;;;;;25.40;13.40;;;;;;;-128.00;-1.00;-1.00;18490;312;7505599;-36
2023/05/20 10:19:31;;;;;;;14.80;11.00;;;;;;;-128.00;-1.00;-1.00;18456;348;7505031;-33
2023/05/20 10:22:01;;;;;;;20.30;16.00;;;;;;;-128.00;-1.00;-1.00;18463;296;7504549;-32
2023/05/20 10:24:34;;;;;;;21.00;13.40;;;;;;;-128.00;-1.00;-1.00;18475;285;7504650;-36
2023/05/20 10:27:02;;;;;;;18.90;12.80;;;;;;;-128.00;-1.00;-1.00;18473;348;7504780;-35
2023/05/20 10:29:28;;;;;;;22.30;14.00;;;;;;;-128.00;-1.00;-1.00;18498;285;7504845;-32
2023/05/20 10:31:53;;;;;;;14.30;12.30;;;;;;;-128.00;-1.00;-1.00;18448;296;7506013;-36
2023/05/20 10:34:21;;;;;;;22.10;17.10;;;;;;;-128.00;-1.00;-1.00;18493;296;7504667;-32
2023/05/20 10:36:57;;;;;;;22.40;15.70;;;;;;;-128.00;-1.00;-1.00;18478;288;7504480;-32
2023/05/20 10:39:31;;;;;;;32.10;17.60;;;;;;;-128.00;-1.00;-1.00;18482;297;7504188;-36
2023/05/20 10:42:10;;;;;;;19.40;14.10;;;;;;;-128.00;-1.00;-1.00;18475;285;7505252;-36
2023/05/20 10:44:48;;;;;;;16.70;12.60;;;;;;;-128.00;-1.00;-1.00;18476;297;7506830;-32
2023/05/20 10:47:14;;;;;;;17.60;13.30;;;;;;;-128.00;-1.00;-1.00;18515;296;7505096;-35
2023/05/20 10:49:44;;;;;;;15.00;12.80;;;;;;;-128.00;-1.00;-1.00;18469;296;7504326;-35
2023/05/20 10:52:10;;;;;;;22.10;15.10;;;;;;;-128.00;-1.00;-1.00;18477;296;7506954;-32
2023/05/20 10:54:45;;;;;;;20.40;13.40;;;;;;;-128.00;-1.00;-1.00;18439;323;7504993;-32
2023/05/20 10:57:11;;;;;;;18.30;13.40;;;;;;;-128.00;-1.00;-1.00;18471;296;7504289;-32
2023/05/20 10:59:36;;;;;;;18.70;14.00;;;;;;;-128.00;-1.00;-1.00;18492;296;7506248;-32
2023/05/20 11:02:03;;;;;;;13.60;10.60;;;;;;;-128.00;-1.00;-1.00;18464;296;7506020;-36
2023/05/20 11:47:14;;;;;;;9.20;8.20;;;;;;;-98.40;12.88;20031.32;98257;295;1544528;-35
2023/05/20 11:49:40;;;;;;;9.70;8.60;;;;;;;-128.00;-1.00;-1.00;97495;297;1003739;-31
2023/05/20 11:52:08;;;;;;;13.40;10.40;;;;;;;-128.00;-1.00;-1.00;97805;295;1003649;-36
2023/05/20 11:54:34;;;;;;;13.90;9.90;;;;;;;-128.00;-1.00;-1.00;97948;295;1003238;-31
2023/05/20 11:57:00;;;;;;;12.00;9.60;;;;;;;-128.00;-1.00;-1.00;97905;295;1002967;-31
2023/05/20 11:59:25;;;;;;;13.60;11.40;;;;;;;-128.00;-1.00;-1.00;97816;295;1003153;-35
2023/05/20 12:01:51;;;;;;;14.70;10.20;;;;;;;-128.00;-1.00;-1.00;94020;295;3002458;-36
2023/05/20 12:04:17;;;;;;;14.70;10.20;;;;;;;-128.00;-1.00;-1.00;74954;295;7504132;-38
2023/05/20 12:06:43;;;;;;;15.70;12.50;;;;;;;-128.00;-1.00;-1.00;19280;295;7503717;-33
2023/05/20 12:09:09;;;;;;;16.00;12.20;;;;;;;-128.00;-1.00;-1.00;18897;319;7505075;-37
2023/05/20 12:11:38;;;;;;;17.20;12.50;;;;;;;-128.00;-1.00;-1.00;18893;295;7504354;-33
2023/05/20 12:14:04;;;;;;;12.50;11.20;;;;;;;-128.00;-1.00;-1.00;18495;287;7506016;-33
2023/05/20 12:16:31;;;;;;;12.80;10.30;;;;;;;-128.00;-1.00;-1.00;18479;296;7505424;-37
2023/05/20 12:18:56;;;;;;;15.80;14.20;;;;;;;-128.00;-1.00;-1.00;18480;336;7506534;-32
2023/05/20 12:21:22;;;;;;;15.50;11.00;;;;;;;-128.00;-1.00;-1.00;18886;295;7504699;-32
2023/05/20 12:23:49;;;;;;;20.30;12.80;;;;;;;-128.00;-1.00;-1.00;18869;341;7504672;-32
2023/05/20 12:26:15;;;;;;;12.80;10.70;;;;;;;-128.00;-1.00;-1.00;18901;344;7504296;-32
2023/05/20 12:28:42;;;;;;;14.40;12.30;;;;;;;-128.00;-1.00;-1.00;18881;295;7505410;-36
2023/05/20 12:31:08;;;;;;;14.10;11.20;;;;;;;-128.00;-1.00;-1.00;18493;295;7504422;-31
2023/05/20 12:33:33;;;;;;;17.00;12.40;;;;;;;-128.00;-1.00;-1.00;18490;287;7506755;-36
2023/05/20 12:35:59;;;;;;;17.80;12.00;;;;;;;-128.00;-1.00;-1.00;18500;287;7506791;-32
2023/05/20 12:38:25;;;;;;;13.00;10.70;;;;;;;-128.00;-1.00;-1.00;18480;347;7505122;-36
2023/05/20 12:40:51;;;;;;;17.10;11.40;;;;;;;-128.00;-1.00;-1.00;18854;348;7504430;-38
2023/05/20 12:43:17;;;;;;;16.30;12.80;;;;;;;-128.00;-1.00;-1.00;18896;295;7504741;-33
2023/05/20 12:45:44;;;;;;;12.10;10.20;;;;;;;-128.00;-1.00;-1.00;18875;296;7504530;-35
2023/05/20 12:48:09;;;;;;;17.70;11.90;;;;;;;-128.00;-1.00;-1.00;18463;296;7506086;-35
2023/05/20 12:50:35;;;;;;;20.30;14.50;;;;;;;-128.00;-1.00;-1.00;18472;296;7506224;-35
2023/05/20 12:53:01;;;;;;;13.50;10.90;;;;;;;-128.00;-1.00;-1.00;18497;297;7504445;-31
2023/05/20 12:55:27;;;;;;;18.00;11.20;;;;;;;-128.00;-1.00;-1.00;18882;296;7505409;-31
2023/05/20 12:57:53;;;;;;;11.30;10.20;;;;;;;-128.00;-1.00;-1.00;18866;288;7504355;-32
2023/05/20 13:00:19;;;;;;;10.00;8.00;;;;;;;-128.00;-1.00;-1.00;18470;288;7506055;-35